createdAt,value
2022-08-28T00:02:17.164Z,16.20
2022-08-28T00:04:45.516Z,16.30
2022-08-28T00:07:14.048Z,16.30
2022-08-28T00:09:43.704Z,16.20
2022-08-28T00:12:12.352Z,16.30
2022-08-28T00:14:41.149Z,16.30
2022-08-28T00:17:09.373Z,16.10
2022-08-28T00:19:38.840Z,16.20
2022-08-28T00:22:08.323Z,16.30
2022-08-28T00:24:36.771Z,16.20
2022-08-28T00:27:23.992Z,16.20
2022-08-28T00:29:52.365Z,16.30
2022-08-28T00:32:22.286Z,16.30
2022-08-28T00:34:50.740Z,16.10
2022-08-28T00:37:19.108Z,16.00
2022-08-28T00:39:47.897Z,16.00
2022-08-28T00:42:18.395Z,15.90
2022-08-28T00:44:47.990Z,15.90
2022-08-28T00:47:16.332Z,16.00
2022-08-28T00:49:50.343Z,16.00
2022-08-28T00:52:20.639Z,16.20
2022-08-28T00:54:58.668Z,16.10
2022-08-28T00:57:33.059Z,15.90
2022-08-28T01:00:01.977Z,15.80
2022-08-28T01:02:31.822Z,15.70
2022-08-28T01:05:00.515Z,15.60
2022-08-28T01:07:29.014Z,15.50
2022-08-28T01:09:59.319Z,15.50
2022-08-28T01:12:33.961Z,15.40
2022-08-28T01:15:09.291Z,15.50
2022-08-28T01:17:43.189Z,15.50
2022-08-28T01:20:17.376Z,15.50
2022-08-28T01:22:57.265Z,15.40
2022-08-28T01:25:33.797Z,15.50
2022-08-28T01:28:05.154Z,15.50
2022-08-28T01:30:34.027Z,15.40
2022-08-28T01:33:02.570Z,15.40
2022-08-28T01:35:35.996Z,15.40
2022-08-28T01:38:04.828Z,15.30
2022-08-28T01:40:41.434Z,15.30
2022-08-28T01:43:12.999Z,15.40
2022-08-28T01:45:44.211Z,15.40
2022-08-28T01:48:14.772Z,15.30
2022-08-28T01:50:44.700Z,15.40
2022-08-28T01:53:17.267Z,15.40
2022-08-28T01:55:47.194Z,15.30
2022-08-28T01:58:16.143Z,15.30
2022-08-28T02:00:44.834Z,15.20
2022-08-28T02:03:13.665Z,15.20
2022-08-28T02:05:43.145Z,15.10
2022-08-28T02:08:11.756Z,15.20
2022-08-28T02:10:43.601Z,15.20
2022-08-28T02:13:13.694Z,15.10
2022-08-28T02:15:44.510Z,15.00
2022-08-28T02:18:14.473Z,15.10
2022-08-28T02:20:43.744Z,15.00
2022-08-28T02:23:12.617Z,15.00
2022-08-28T02:25:40.950Z,15.00
2022-08-28T02:28:09.579Z,15.00
2022-08-28T02:30:40.117Z,15.00
2022-08-28T02:33:08.860Z,15.00
2022-08-28T02:35:37.384Z,14.90
2022-08-28T02:38:05.632Z,14.90
2022-08-28T02:40:33.975Z,14.90
2022-08-28T02:43:02.208Z,14.90
2022-08-28T02:45:30.513Z,14.90
2022-08-28T02:48:01.937Z,14.90
2022-08-28T02:50:32.083Z,14.90
2022-08-28T02:53:00.401Z,14.80
2022-08-28T02:55:32.476Z,14.80
2022-08-28T02:58:02.364Z,14.80
2022-08-28T03:00:30.518Z,14.80
2022-08-28T03:03:00.087Z,14.80
2022-08-28T03:05:28.367Z,14.80
2022-08-28T03:07:57.010Z,14.70
2022-08-28T03:10:25.284Z,14.70
2022-08-28T03:12:53.746Z,14.70
2022-08-28T03:15:22.607Z,14.70
2022-08-28T03:17:50.861Z,14.70
2022-08-28T03:20:20.772Z,14.70
2022-08-28T03:23:06.963Z,14.60
2022-08-28T03:25:35.870Z,14.60
2022-08-28T03:28:04.666Z,14.60
2022-08-28T03:30:33.029Z,14.60
2022-08-28T03:33:01.325Z,14.60
2022-08-28T03:35:31.030Z,14.60
2022-08-28T03:37:59.953Z,14.60
2022-08-28T03:40:28.349Z,14.60
2022-08-28T03:42:56.675Z,14.60
2022-08-28T03:45:25.615Z,14.60
2022-08-28T03:47:54.910Z,14.60
2022-08-28T03:50:23.349Z,14.60
2022-08-28T03:52:54.478Z,14.60
2022-08-28T03:55:22.935Z,14.50
2022-08-28T03:57:51.546Z,14.50
2022-08-28T04:00:20.768Z,14.50
2022-08-28T04:02:48.921Z,14.50
2022-08-28T04:05:17.770Z,14.40
2022-08-28T04:07:46.203Z,14.50
2022-08-28T04:10:15.981Z,14.50
2022-08-28T04:12:44.730Z,14.50
2022-08-28T04:15:15.030Z,14.50
2022-08-28T04:17:43.538Z,14.40
2022-08-28T04:20:12.392Z,14.40
2022-08-28T04:22:41.187Z,14.40
2022-08-28T04:25:10.334Z,14.40
2022-08-28T04:27:40.325Z,14.40
2022-08-28T04:30:10.050Z,14.40
2022-08-28T04:32:39.690Z,14.50
2022-08-28T04:35:12.419Z,14.50
2022-08-28T04:37:44.026Z,14.60
2022-08-28T04:40:15.818Z,14.70
2022-08-28T04:42:47.433Z,14.70
2022-08-28T04:45:15.871Z,14.70
2022-08-28T04:47:44.215Z,14.70
2022-08-28T04:50:13.399Z,14.80
2022-08-28T04:52:43.160Z,14.80
2022-08-28T04:55:11.924Z,14.80
2022-08-28T04:57:40.121Z,14.90
2022-08-28T05:00:12.345Z,14.90
2022-08-28T05:02:40.669Z,15.00
2022-08-28T05:05:10.040Z,15.00
2022-08-28T05:07:38.283Z,15.10
2022-08-28T05:10:07.658Z,15.10
2022-08-28T05:12:37.400Z,15.00
2022-08-28T05:15:09.920Z,15.00
2022-08-28T05:17:38.099Z,15.00
2022-08-28T05:20:07.819Z,15.10
2022-08-28T05:22:36.401Z,15.10
2022-08-28T05:25:05.406Z,15.20
2022-08-28T05:27:33.650Z,15.20
2022-08-28T05:30:02.326Z,15.30
2022-08-28T05:32:33.209Z,15.30
2022-08-28T05:35:01.514Z,15.50
2022-08-28T05:37:30.005Z,15.50
2022-08-28T05:39:58.269Z,15.60
2022-08-28T05:42:30.669Z,15.70
2022-08-28T05:44:59.992Z,15.70
2022-08-28T05:47:28.311Z,15.90
2022-08-28T05:49:58.480Z,16.00
2022-08-28T05:52:28.749Z,16.00
2022-08-28T05:54:57.270Z,16.10
2022-08-28T05:57:25.518Z,16.20
2022-08-28T05:59:54.312Z,16.30
2022-08-28T06:02:22.801Z,16.50
2022-08-28T06:04:51.372Z,16.60
2022-08-28T06:07:21.303Z,16.70
2022-08-28T06:09:49.623Z,16.70
2022-08-28T06:12:20.320Z,16.70
2022-08-28T06:14:48.755Z,16.80
2022-08-28T06:17:23.586Z,16.80
2022-08-28T06:19:52.199Z,17.00
2022-08-28T06:22:21.875Z,17.10
2022-08-28T06:24:50.218Z,17.20
2022-08-28T06:27:18.525Z,17.10
2022-08-28T06:29:46.846Z,17.20
2022-08-28T06:32:15.251Z,17.30
2022-08-28T06:34:43.508Z,17.30
2022-08-28T06:37:11.729Z,17.30
2022-08-28T06:39:41.390Z,17.40
2022-08-28T06:42:09.687Z,17.60
2022-08-28T06:44:39.904Z,17.60
2022-08-28T06:47:08.843Z,17.80
2022-08-28T06:49:37.102Z,17.90
2022-08-28T06:52:05.547Z,17.90
2022-08-28T06:54:34.302Z,18.00
2022-08-28T06:57:08.269Z,18.00
2022-08-28T06:59:36.571Z,18.00
2022-08-28T07:02:06.439Z,18.10
2022-08-28T07:04:34.829Z,18.20
2022-08-28T07:07:03.129Z,18.30
2022-08-28T07:09:31.373Z,18.30
2022-08-28T07:11:59.710Z,18.30
2022-08-28T07:14:29.332Z,18.30
2022-08-28T07:16:57.753Z,18.30
2022-08-28T07:19:26.633Z,18.50
2022-08-28T07:21:55.296Z,18.50
2022-08-28T07:24:23.813Z,18.50
2022-08-28T07:26:53.420Z,18.50
2022-08-28T07:29:22.134Z,18.60
2022-08-28T07:31:55.877Z,18.60
2022-08-28T07:34:27.144Z,18.50
2022-08-28T07:36:58.193Z,18.70
2022-08-28T07:39:26.363Z,18.70
2022-08-28T07:41:54.785Z,18.70
2022-08-28T07:44:40.907Z,18.70
2022-08-28T07:47:11.752Z,18.70
2022-08-28T07:49:41.452Z,18.70
2022-08-28T07:52:11.030Z,18.80
2022-08-28T07:54:40.482Z,18.90
2022-08-28T07:57:10.867Z,19.00
2022-08-28T07:59:39.871Z,19.00
2022-08-28T08:02:12.180Z,19.10
2022-08-28T08:04:40.987Z,19.20
2022-08-28T08:07:09.552Z,19.10
2022-08-28T08:09:40.596Z,19.00
2022-08-28T08:12:10.574Z,19.00
2022-08-28T08:14:40.607Z,19.10
2022-08-28T08:17:11.176Z,19.20
2022-08-28T08:19:40.240Z,19.30
2022-08-28T08:22:08.519Z,19.40
2022-08-28T08:24:37.193Z,19.50
2022-08-28T08:27:06.763Z,19.40
2022-08-28T08:29:38.452Z,19.30
2022-08-28T08:32:12.159Z,19.40
2022-08-28T08:34:45.652Z,19.40
2022-08-28T08:37:15.165Z,19.50
2022-08-28T08:39:44.596Z,19.80
2022-08-28T08:42:25.424Z,19.90
2022-08-28T08:44:57.399Z,19.70
2022-08-28T08:47:39.305Z,19.60
2022-08-28T08:50:17.040Z,19.50
2022-08-28T08:53:02.542Z,19.70
2022-08-28T08:55:35.429Z,20.00
2022-08-28T08:58:08.556Z,20.10
2022-08-28T09:00:47.706Z,20.10
2022-08-28T09:03:25.156Z,20.20
2022-08-28T09:05:59.158Z,20.00
2022-08-28T09:08:35.122Z,20.00
2022-08-28T09:11:16.350Z,20.10
2022-08-28T09:13:59.216Z,20.00
2022-08-28T09:16:32.952Z,20.00
2022-08-28T09:19:04.076Z,19.90
2022-08-28T09:21:39.898Z,20.00
2022-08-28T09:24:20.669Z,20.00
2022-08-28T09:26:56.256Z,20.10
2022-08-28T09:29:32.936Z,20.10
2022-08-28T09:32:22.891Z,20.30
2022-08-28T09:35:12.434Z,20.40
2022-08-28T09:37:44.456Z,20.60
2022-08-28T09:40:21.990Z,20.60
2022-08-28T09:43:28.341Z,20.60
2022-08-28T09:46:01.753Z,20.50
2022-08-28T09:48:37.886Z,20.30
2022-08-28T09:51:11.322Z,20.30
2022-08-28T09:53:57.062Z,20.20
2022-08-28T09:56:31.989Z,20.30
2022-08-28T09:59:06.829Z,20.20
2022-08-28T10:01:53.888Z,20.20
2022-08-28T10:04:42.669Z,20.20
2022-08-28T10:07:24.625Z,20.10
2022-08-28T10:10:06.624Z,20.10
2022-08-28T10:13:01.407Z,19.90
2022-08-28T10:15:43.525Z,20.10
2022-08-28T10:18:37.257Z,20.30
2022-08-28T10:21:16.912Z,20.30
2022-08-28T10:24:24.753Z,20.30
2022-08-28T10:27:07.564Z,20.30
2022-08-28T10:29:52.504Z,20.30
2022-08-28T10:32:55.487Z,20.20
2022-08-28T10:35:28.881Z,20.20
2022-08-28T10:38:07.273Z,20.10
2022-08-28T10:40:41.739Z,19.90
2022-08-28T10:43:16.336Z,19.70
2022-08-28T10:45:44.945Z,19.60
2022-08-28T10:48:23.380Z,19.60
2022-08-28T10:50:55.996Z,19.60
2022-08-28T10:53:33.960Z,19.60
2022-08-28T10:56:08.564Z,19.60
2022-08-28T10:58:41.613Z,19.70
2022-08-28T11:01:19.540Z,19.70
2022-08-28T11:03:51.505Z,19.70
2022-08-28T11:06:29.554Z,19.60
2022-08-28T11:09:21.664Z,19.60
2022-08-28T11:12:01.058Z,19.70
2022-08-28T11:14:35.696Z,19.70
2022-08-28T11:17:40.280Z,19.90
2022-08-28T11:20:16.628Z,20.30
2022-08-28T11:22:50.906Z,20.50
2022-08-28T11:25:26.653Z,20.80
2022-08-28T11:28:19.070Z,20.80
2022-08-28T11:30:50.381Z,20.90
2022-08-28T11:33:41.731Z,20.80
2022-08-28T11:36:34.403Z,20.80
2022-08-28T11:39:20.313Z,20.80
2022-08-28T11:42:37.148Z,20.90
2022-08-28T11:45:08.103Z,21.30
2022-08-28T11:47:56.726Z,21.20
2022-08-28T11:50:54.246Z,21.00
2022-08-28T11:53:52.154Z,20.80
2022-08-28T11:56:53.780Z,20.50
2022-08-28T11:59:44.217Z,20.30
2022-08-28T12:02:55.559Z,20.30
2022-08-28T12:05:45.259Z,20.50
2022-08-28T12:08:48.648Z,20.70
2022-08-28T12:11:52.713Z,20.80
2022-08-28T12:15:10.337Z,21.30
2022-08-28T12:17:55.032Z,21.70
2022-08-28T12:20:48.511Z,21.80
2022-08-28T12:23:44.958Z,21.60
2022-08-28T12:26:25.675Z,21.50
2022-08-28T12:29:00.583Z,21.40
2022-08-28T12:32:14.862Z,21.50
2022-08-28T12:35:17.646Z,21.50
2022-08-28T12:38:00.008Z,21.80
2022-08-28T12:40:35.997Z,21.80
2022-08-28T12:43:08.550Z,21.70
2022-08-28T12:45:41.530Z,21.50
2022-08-28T12:48:19.082Z,21.30
2022-08-28T12:50:47.454Z,21.30
2022-08-28T12:53:19.257Z,21.30
2022-08-28T12:55:47.880Z,21.20
2022-08-28T12:58:31.929Z,21.00
2022-08-28T13:01:07.268Z,20.90
2022-08-28T13:03:42.405Z,20.80
2022-08-28T13:06:11.296Z,20.80
2022-08-28T13:08:40.052Z,20.80
2022-08-28T13:11:09.095Z,20.70
2022-08-28T13:13:47.119Z,20.70
2022-08-28T13:16:39.772Z,21.10
2022-08-28T13:19:25.013Z,21.20
2022-08-28T13:22:00.295Z,21.20
2022-08-28T13:24:43.446Z,21.10
2022-08-28T13:27:25.579Z,20.90
2022-08-28T13:30:05.441Z,20.80
2022-08-28T13:32:39.961Z,20.70
2022-08-28T13:35:31.027Z,20.60
2022-08-28T13:38:01.722Z,20.60
2022-08-28T13:43:26.475Z,20.50
2022-08-28T13:45:55.146Z,20.60
2022-08-28T13:48:27.328Z,20.60
2022-08-28T13:51:04.844Z,20.70
2022-08-28T13:53:33.567Z,20.90
2022-08-28T13:56:02.840Z,21.10
2022-08-28T13:58:31.115Z,21.20
2022-08-28T14:00:59.977Z,21.20
2022-08-28T14:03:37.887Z,21.10
2022-08-28T14:06:11.417Z,21.00
2022-08-28T14:08:41.245Z,20.90
2022-08-28T14:11:12.639Z,20.80
2022-08-28T14:13:47.392Z,20.80
2022-08-28T14:16:24.108Z,20.70
2022-08-28T14:18:54.149Z,20.70
2022-08-28T14:21:24.338Z,20.70
2022-08-28T14:23:52.519Z,20.60
2022-08-28T14:26:20.813Z,20.60
2022-08-28T14:28:49.017Z,20.70
2022-08-28T14:31:17.685Z,20.70
2022-08-28T14:33:45.999Z,20.60
2022-08-28T14:36:18.770Z,20.60
2022-08-28T14:38:47.126Z,20.60
2022-08-28T14:41:17.351Z,20.70
2022-08-28T14:43:46.482Z,20.70
2022-08-28T14:46:17.410Z,20.70
2022-08-28T14:48:45.835Z,20.80
2022-08-28T14:51:14.252Z,20.80
2022-08-28T14:53:44.174Z,20.80
2022-08-28T14:56:12.933Z,20.70
2022-08-28T14:58:41.795Z,20.80
2022-08-28T15:01:10.264Z,20.80
2022-08-28T15:03:39.677Z,20.80
2022-08-28T15:06:11.226Z,20.60
2022-08-28T15:08:39.727Z,20.50
2022-08-28T15:11:11.761Z,20.40
2022-08-28T15:13:42.917Z,20.30
2022-08-28T15:16:16.025Z,20.20
2022-08-28T15:18:46.285Z,20.30
2022-08-28T15:21:20.944Z,20.30
2022-08-28T15:23:51.228Z,20.30
2022-08-28T15:26:23.968Z,20.30
2022-08-28T15:28:55.656Z,20.30
2022-08-28T15:31:24.555Z,20.30
2022-08-28T15:33:53.280Z,20.20
2022-08-28T15:36:22.086Z,20.10
2022-08-28T15:39:08.358Z,20.10
2022-08-28T15:41:38.443Z,20.20
2022-08-28T15:44:07.172Z,20.20
2022-08-28T15:46:37.014Z,20.30
2022-08-28T15:49:09.415Z,20.20
2022-08-28T15:51:38.777Z,20.10
2022-08-28T15:54:07.543Z,20.10
2022-08-28T15:56:37.153Z,20.10
2022-08-28T15:59:05.496Z,20.00
2022-08-28T16:01:33.730Z,20.10
2022-08-28T16:04:02.397Z,20.10
2022-08-28T16:06:30.654Z,20.10
2022-08-28T16:08:58.916Z,20.10
2022-08-28T16:11:28.254Z,20.10
2022-08-28T16:14:04.487Z,20.20
2022-08-28T16:16:33.322Z,20.10
2022-08-28T16:19:02.135Z,20.10
2022-08-28T16:21:32.841Z,20.20
2022-08-28T16:24:01.239Z,20.10
2022-08-28T16:26:30.447Z,20.10
2022-08-28T16:28:58.924Z,20.10
2022-08-28T16:31:28.762Z,20.10
2022-08-28T16:33:57.099Z,19.90
2022-08-28T16:36:26.103Z,19.90
2022-08-28T16:39:04.039Z,19.80
2022-08-28T16:41:33.009Z,19.90
2022-08-28T16:44:01.337Z,19.90
2022-08-28T16:46:31.931Z,20.00
2022-08-28T16:49:01.520Z,20.00
2022-08-28T16:51:29.962Z,19.90
2022-08-28T16:53:58.612Z,19.90
2022-08-28T16:56:26.830Z,19.90
2022-08-28T16:58:55.319Z,19.80
2022-08-28T17:01:25.326Z,19.80
2022-08-28T17:03:55.756Z,19.70
2022-08-28T17:06:27.398Z,19.70
2022-08-28T17:08:57.365Z,19.70
2022-08-28T17:11:27.072Z,19.80
2022-08-28T17:13:56.312Z,19.70
2022-08-28T17:16:30.078Z,19.70
2022-08-28T17:19:00.450Z,19.70
2022-08-28T17:21:46.318Z,19.60
2022-08-28T17:24:14.746Z,19.50
2022-08-28T17:26:44.397Z,19.50
2022-08-28T17:29:13.143Z,19.50
2022-08-28T17:31:41.603Z,19.50
2022-08-28T17:34:12.174Z,19.50
2022-08-28T17:36:43.259Z,19.50
2022-08-28T17:39:15.374Z,19.40
2022-08-28T17:41:44.002Z,19.50
2022-08-28T17:44:13.756Z,19.50
2022-08-28T17:46:42.127Z,19.50
2022-08-28T17:49:11.844Z,19.40
2022-08-28T17:51:43.651Z,19.30
2022-08-28T17:54:13.805Z,19.40
2022-08-28T17:56:42.707Z,19.40
2022-08-28T17:59:12.014Z,19.30
2022-08-28T18:01:42.278Z,19.30
2022-08-28T18:04:13.069Z,19.30
2022-08-28T18:06:41.606Z,19.30
2022-08-28T18:09:10.876Z,19.20
2022-08-28T18:11:39.264Z,19.20
2022-08-28T18:14:08.241Z,19.10
2022-08-28T18:16:38.777Z,19.10
2022-08-28T18:19:10.513Z,19.00
2022-08-28T18:21:41.717Z,19.10
2022-08-28T18:24:12.889Z,19.20
2022-08-28T18:26:42.568Z,19.10
2022-08-28T18:29:11.761Z,19.00
2022-08-28T18:31:40.333Z,19.00
2022-08-28T18:34:09.724Z,19.00
2022-08-28T18:36:41.467Z,19.00
2022-08-28T18:39:11.080Z,19.00
2022-08-28T18:41:44.130Z,19.00
2022-08-28T18:44:15.153Z,19.00
2022-08-28T18:46:44.809Z,19.10
2022-08-28T18:49:14.385Z,19.20
2022-08-28T18:51:45.710Z,19.30
2022-08-28T18:54:16.745Z,19.20
2022-08-28T18:56:45.543Z,19.10
2022-08-28T18:59:13.886Z,19.00
2022-08-28T19:01:42.859Z,18.90
2022-08-28T19:04:11.471Z,18.90
2022-08-28T19:06:42.891Z,18.90
2022-08-28T19:09:20.207Z,19.00
2022-08-28T19:11:48.866Z,18.90
2022-08-28T19:14:17.188Z,18.80
2022-08-28T19:16:46.124Z,18.70
2022-08-28T19:19:15.300Z,18.60
2022-08-28T19:21:46.082Z,18.60
2022-08-28T19:24:17.566Z,18.70
2022-08-28T19:26:46.331Z,18.60
2022-08-28T19:29:14.984Z,18.60
2022-08-28T19:31:44.718Z,18.60
2022-08-28T19:34:13.034Z,18.60
2022-08-28T19:36:41.684Z,18.50
2022-08-28T19:39:11.503Z,18.50
2022-08-28T19:41:40.573Z,18.40
2022-08-28T19:44:10.305Z,18.40
2022-08-28T19:46:40.311Z,18.30
2022-08-28T19:49:09.202Z,18.30
2022-08-28T19:51:39.885Z,18.30
2022-08-28T19:54:13.993Z,18.20
2022-08-28T19:56:42.514Z,18.20
2022-08-28T19:59:10.923Z,18.20
2022-08-28T20:01:43.530Z,18.10
2022-08-28T20:04:16.615Z,18.00
2022-08-28T20:06:46.282Z,18.10
2022-08-28T20:09:18.254Z,18.00
2022-08-28T20:11:47.004Z,18.00
2022-08-28T20:14:17.372Z,18.00
2022-08-28T20:16:48.623Z,18.00
2022-08-28T20:19:18.717Z,18.00
2022-08-28T20:21:50.087Z,18.00
2022-08-28T20:24:23.990Z,17.90
2022-08-28T20:26:53.433Z,17.90
2022-08-28T20:29:24.004Z,18.00
2022-08-28T20:31:53.105Z,17.90
2022-08-28T20:34:22.414Z,18.00
2022-08-28T20:36:50.870Z,17.90
2022-08-28T20:39:21.821Z,17.90
2022-08-28T20:41:50.318Z,17.90
2022-08-28T20:44:21.842Z,17.90
2022-08-28T20:46:51.519Z,18.00
2022-08-28T20:49:23.654Z,18.00
2022-08-28T20:51:57.401Z,17.90
2022-08-28T20:54:31.369Z,18.00
2022-08-28T20:57:03.563Z,18.00
2022-08-28T20:59:39.392Z,18.00
2022-08-28T21:02:12.205Z,17.90
2022-08-28T21:04:42.529Z,18.00
2022-08-28T21:07:11.645Z,18.00
2022-08-28T21:10:06.047Z,17.90
2022-08-28T21:12:29.926Z,17.90
2022-08-28T21:14:59.703Z,17.90
2022-08-28T21:17:29.587Z,18.00
2022-08-28T21:20:01.199Z,18.00
2022-08-28T21:22:31.353Z,18.00
2022-08-28T21:25:01.816Z,17.90
2022-08-28T21:27:30.341Z,17.90
2022-08-28T21:30:00.815Z,18.00
2022-08-28T21:32:32.519Z,18.10
2022-08-28T21:35:00.982Z,18.10
2022-08-28T21:37:29.593Z,18.00
2022-08-28T21:40:01.682Z,17.90
2022-08-28T21:42:30.591Z,17.90
2022-08-28T21:44:58.859Z,17.80
2022-08-28T21:47:27.378Z,17.70
2022-08-28T21:49:58.106Z,17.70
2022-08-28T21:52:31.517Z,17.70
2022-08-28T21:55:03.646Z,17.80
2022-08-28T21:57:32.117Z,17.80
2022-08-28T22:00:00.670Z,17.80
2022-08-28T22:02:29.198Z,17.80
2022-08-28T22:04:57.631Z,17.90
2022-08-28T22:07:25.817Z,18.00
2022-08-28T22:09:54.068Z,18.10
2022-08-28T22:12:23.641Z,18.00
2022-08-28T22:14:51.857Z,18.00
2022-08-28T22:17:21.566Z,18.00
2022-08-28T22:19:49.815Z,18.00
2022-08-28T22:22:35.628Z,18.10
2022-08-28T22:25:05.578Z,18.00
2022-08-28T22:27:35.481Z,18.10
2022-08-28T22:30:05.356Z,18.10
2022-08-28T22:32:33.650Z,18.10
2022-08-28T22:35:01.992Z,18.00
2022-08-28T22:37:30.251Z,18.00
2022-08-28T22:39:59.155Z,18.00
2022-08-28T22:42:27.453Z,18.10
2022-08-28T22:44:57.062Z,18.10
2022-08-28T22:47:25.610Z,18.10
2022-08-28T22:49:58.261Z,18.10
2022-08-28T22:52:26.640Z,18.10
2022-08-28T22:54:55.233Z,18.00
2022-08-28T22:57:24.319Z,18.10
2022-08-28T22:59:52.496Z,18.10
2022-08-28T23:02:23.061Z,18.00
2022-08-28T23:04:55.772Z,18.10
2022-08-28T23:07:23.959Z,18.10
2022-08-28T23:09:52.162Z,18.10
2022-08-28T23:12:20.357Z,18.10
2022-08-28T23:14:48.987Z,18.10
2022-08-28T23:17:17.893Z,18.10
2022-08-28T23:19:49.219Z,18.10
2022-08-28T23:22:19.351Z,18.10
2022-08-28T23:24:48.703Z,18.20
2022-08-28T23:27:36.342Z,18.10
2022-08-28T23:30:08.363Z,18.20
2022-08-28T23:32:37.014Z,18.20
2022-08-28T23:35:08.912Z,18.10
2022-08-28T23:37:39.834Z,18.10
2022-08-28T23:40:12.770Z,18.20
2022-08-28T23:42:41.814Z,18.20
2022-08-28T23:45:12.292Z,18.20
2022-08-28T23:47:41.622Z,18.20
2022-08-28T23:50:16.631Z,18.10
2022-08-28T23:52:45.298Z,18.10
2022-08-28T23:55:15.604Z,18.20
2022-08-28T23:57:44.048Z,18.20
